Time;durP1;ratioP1;P1;durP2;ratioP2;P2;SDS_P1;SDS_P2;PMS_P1;PMS_P2;Temp;Humidity;BMP_temperature;BMP_pressure;BME280_temperature;BME280_humidity;BME280_pressure;Samples;Min_cycle;Max_cycle;Signal;HPM_P1;HPM_P2
2022/04/20 00:01:24;;;;;;;139.23;130.38;;;10.00;99.90;;;;;;5116115;27;20055;-82
2022/04/20 00:03:50;;;;;;;56.28;52.45;;;7.80;99.90;;;;;;5117149;27;20051;-81
2022/04/20 00:06:16;;;;;;;70.97;66.38;;;8.00;99.90;;;;;;5134604;27;20097;-80
2022/04/20 00:08:42;;;;;;;86.32;80.75;;;7.80;99.90;;;;;;5115763;27;20132;-81
2022/04/20 00:11:08;;;;;;;73.97;69.28;;;7.80;99.90;;;;;;5135106;27;20139;-80
2022/04/20 00:13:34;;;;;;;92.90;87.30;;;8.10;99.90;;;;;;5116406;27;20047;-80
2022/04/20 00:16:00;;;;;;;174.10;162.93;;;9.40;99.90;;;;;;5135116;27;20538;-80
2022/04/20 00:18:26;;;;;;;131.63;123.50;;;9.90;99.90;;;;;;5134201;27;20116;-80
2022/04/20 00:20:52;;;;;;;75.43;70.43;;;8.40;99.90;;;;;;5116079;27;20055;-80
2022/04/20 00:23:18;;;;;;;94.55;88.57;;;9.30;99.90;;;;;;5099452;27;20073;-80
2022/04/20 00:25:43;;;;;;;62.17;58.00;;;7.70;99.90;;;;;;5115955;27;20039;-81
2022/04/20 00:28:09;;;;;;;103.68;96.97;;;8.30;99.90;;;;;;5116639;27;20131;-81
2022/04/20 00:30:35;;;;;;;25.30;23.20;;;7.70;99.90;;;;;;5115586;27;20051;-80
2022/04/20 00:33:00;;;;;;;62.80;58.78;;;7.60;99.90;;;;;;5116304;27;20047;-81
2022/04/20 00:35:27;;;;;;;47.67;44.55;;;8.40;99.90;;;;;;5115699;27;20066;-81
2022/04/20 00:37:53;;;;;;;37.63;34.88;;;7.70;99.90;;;;;;5134358;27;20075;-81
2022/04/20 00:40:19;;;;;;;100.45;94.18;;;7.60;99.90;;;;;;5098918;27;20043;-81
2022/04/20 00:42:45;;;;;;;46.70;43.50;;;7.60;99.90;;;;;;5134394;27;20046;-81
2022/04/20 00:45:12;;;;;;;88.63;82.97;;;7.90;99.90;;;;;;5115689;27;20047;-80
2022/04/20 00:47:39;;;;;;;;;;;7.50;99.90;;;;;;5114122;27;20043;-80
2022/04/20 00:50:09;;;;;;;47.45;44.15;;;7.50;99.90;;;;;;5115538;27;19919;-83
2022/04/20 00:52:35;;;;;;;120.75;113.40;;;7.50;99.90;;;;;;5115271;27;20047;-81
2022/04/20 00:55:01;;;;;;;72.50;67.57;;;9.40;99.90;;;;;;5115609;27;20047;-80
2022/04/20 00:57:26;;;;;;;75.97;71.05;;;7.40;99.90;;;;;;5098380;27;20381;-81
2022/04/20 00:59:56;;;;;;;68.32;63.30;;;7.40;99.90;;;;;;5098165;27;20062;-84
2022/04/20 01:02:22;;;;;;;90.45;84.78;;;7.50;99.90;;;;;;5132114;27;20043;-81
2022/04/20 01:04:48;;;;;;;86.72;81.20;;;7.30;99.90;;;;;;5133788;27;20092;-80
2022/04/20 01:07:16;;;;;;;90.63;85.07;;;8.00;99.90;;;;;;5115699;27;20425;-82
2022/04/20 01:09:43;;;;;;;69.20;64.57;;;7.30;99.90;;;;;;5115509;27;20424;-81
2022/04/20 01:12:09;;;;;;;79.57;74.20;;;8.60;99.90;;;;;;5133441;27;20540;-81
2022/04/20 01:14:36;;;;;;;108.90;102.10;;;7.20;99.90;;;;;;5133696;27;20091;-81
2022/04/20 01:17:03;;;;;;;100.13;93.75;;;7.20;99.90;;;;;;5114997;27;20515;-82
2022/04/20 01:19:32;;;;;;;74.75;69.82;;;7.20;99.90;;;;;;5114815;27;20062;-81
2022/04/20 01:21:58;;;;;;;49.08;45.42;;;8.00;99.90;;;;;;5133786;27;20046;-81
2022/04/20 01:24:24;;;;;;;90.75;84.85;;;7.10;99.90;;;;;;5098498;27;20039;-80
2022/04/20 01:26:50;;;;;;;131.63;123.15;;;7.10;99.90;;;;;;5098291;27;20062;-81
2022/04/20 01:29:18;;;;;;;70.60;66.00;;;7.40;99.90;;;;;;5133055;27;20082;-81
2022/04/20 01:31:44;;;;;;;67.03;62.58;;;7.10;99.90;;;;;;5097502;27;20112;-81
2022/04/20 01:34:09;;;;;;;59.42;55.33;;;7.00;99.90;;;;;;5133561;27;20051;-80
2022/04/20 01:36:35;;;;;;;54.08;50.17;;;8.90;99.90;;;;;;5097578;27;20460;-80
2022/04/20 01:39:01;;;;;;;51.08;47.40;;;7.00;99.90;;;;;;5114910;27;20043;-80
2022/04/20 01:41:27;;;;;;;52.38;48.83;;;7.50;99.90;;;;;;5133021;27;20043;-80
2022/04/20 01:43:52;;;;;;;62.78;58.25;;;6.90;99.90;;;;;;5115341;27;20085;-80
2022/04/20 01:46:18;;;;;;;59.45;55.47;;;9.00;99.90;;;;;;5097709;27;20050;-82
2022/04/20 01:48:44;;;;;;;60.80;56.80;;;8.80;99.90;;;;;;5113839;27;20043;-81
2022/04/20 01:53:54;;;;;;;67.45;63.17;;;7.20;99.90;;;;;;5133341;27;20143;-81
2022/04/20 01:56:20;;;;;;;67.68;62.75;;;;;;;;;;5097417;27;20089;-81
2022/04/20 01:58:46;;;;;;;62.30;57.97;;;6.70;99.90;;;;;;5114410;27;20517;-82
2022/04/20 02:03:56;;;;;;;106.18;99.38;;;6.60;99.90;;;;;;5132378;27;20051;-81
2022/04/20 02:06:21;;;;;;;64.57;60.28;;;6.60;99.90;;;;;;5097620;27;20199;-82
2022/04/20 02:08:47;;;;;;;84.32;78.80;;;6.70;99.90;;;;;;5133095;27;20043;-80
2022/04/20 02:11:13;;;;;;;32.15;29.75;;;8.70;99.90;;;;;;5114309;27;20043;-82
2022/04/20 02:13:39;;;;;;;29.95;27.65;;;6.80;99.90;;;;;;5096898;27;20475;-81
2022/04/20 02:16:05;;;;;;;21.40;18.73;;;6.90;99.90;;;;;;5114767;27;20081;-80
2022/04/20 02:18:31;;;;;;;18.00;16.20;;;6.80;99.90;;;;;;5132016;27;20569;-80
2022/04/20 02:20:56;;;;;;;19.25;17.33;;;6.80;1.00;;;;;;5132532;27;20121;-83
2022/04/20 02:23:22;;;;;;;75.45;70.47;;;6.90;1.00;;;;;;5114109;27;20481;-81
2022/04/20 02:25:48;;;;;;;62.15;58.13;;;7.90;1.00;;;;;;5132117;27;20088;-82
2022/04/20 02:28:14;;;;;;;83.90;77.18;;;7.90;1.00;;;;;;5113861;27;20474;-81
2022/04/20 02:30:40;;;;;;;90.35;84.28;;;6.70;1.00;;;;;;5113204;28;20039;-80
2022/04/20 02:33:06;;;;;;;73.40;68.28;;;6.60;1.00;;;;;;5096399;27;20079;-80
2022/04/20 02:35:32;;;;;;;92.90;87.15;;;7.10;1.00;;;;;;5113706;27;20050;-81
2022/04/20 02:37:59;;;;;;;124.65;116.55;;;7.30;1.00;;;;;;5131695;27;20526;-80
2022/04/20 02:40:24;;;;;;;87.75;82.20;;;6.60;1.00;;;;;;5131771;27;20431;-84
2022/04/20 02:42:50;;;;;;;62.40;58.15;;;6.90;1.00;;;;;;5113079;28;20099;-81
2022/04/20 02:45:16;;;;;;;92.55;86.60;;;8.10;1.00;;;;;;5132112;27;20593;-80
2022/04/20 02:47:43;;;;;;;81.38;75.40;;;6.40;1.00;;;;;;5112896;28;20051;-80
2022/04/20 02:50:09;;;;;;;62.65;58.08;;;6.60;1.00;;;;;;5113387;27;20055;-80
2022/04/20 02:52:35;;;;;;;47.30;43.90;;;6.20;1.00;;;;;;5131445;27;20031;-80
2022/04/20 02:55:02;;;;;;;87.32;81.95;;;6.20;1.00;;;;;;5096796;28;20096;-83
2022/04/20 02:57:28;;;;;;;56.50;52.55;;;4.80;1.00;;;;;;5131272;28;20171;-80
2022/04/20 02:59:54;;;;;;;68.95;64.07;;;;;;;;;;5113288;28;20054;-80
2022/04/20 03:02:20;;;;;;;59.65;55.42;;;6.00;1.00;;;;;;5131162;28;20085;-80
2022/04/20 03:04:46;;;;;;;82.88;77.25;;;6.70;1.00;;;;;;5113425;28;20089;-80
2022/04/20 03:07:11;;;;;;;102.70;96.07;;;6.00;1.00;;;;;;5113159;28;20047;-80
2022/04/20 03:09:37;;;;;;;73.78;68.88;;;7.40;1.00;;;;;;5112916;28;20050;-80
2022/04/20 03:12:03;;;;;;;77.88;72.53;;;7.40;1.00;;;;;;5131194;28;20054;-82
2022/04/20 03:14:29;;;;;;;98.63;92.50;;;5.70;1.00;;;;;;5113332;27;20047;-80
2022/04/20 03:16:54;;;;;;;77.03;72.13;;;5.70;1.00;;;;;;5083226;27;20364;-80
2022/04/20 03:19:20;;;;;;;77.75;72.60;;;5.70;1.00;;;;;;5136313;27;20043;-81
2022/04/20 03:21:46;;;;;;;95.68;89.32;;;5.70;1.00;;;;;;5117577;27;20220;-80
2022/04/20 03:24:11;;;;;;;79.90;74.68;;;7.40;1.00;;;;;;5135931;27;20121;-81
2022/04/20 03:26:37;;;;;;;74.45;69.40;;;5.50;1.00;;;;;;5116830;27;20047;-80
2022/04/20 03:29:02;;;;;;;59.83;55.60;;;7.40;1.00;;;;;;5100229;27;20101;-80
2022/04/20 03:31:28;;;;;;;68.60;63.85;;;5.30;1.00;;;;;;5135376;27;20376;-83
2022/04/20 03:33:55;;;;;;;65.97;61.53;;;5.30;1.00;;;;;;5100198;27;20403;-80
2022/04/20 03:36:21;;;;;;;84.25;78.78;;;5.40;1.00;;;;;;5135754;27;20055;-80
2022/04/20 03:38:46;;;;;;;92.97;86.90;;;5.30;1.00;;;;;;5135554;27;20047;-80
2022/04/20 03:41:12;;;;;;;87.65;81.95;;;5.80;1.00;;;;;;5117398;27;20047;-80
2022/04/20 03:43:38;;;;;;;81.53;76.28;;;6.90;1.00;;;;;;5099715;27;20471;-80
2022/04/20 03:46:05;;;;;;;95.18;88.68;;;7.10;1.00;;;;;;5135664;27;20089;-80
2022/04/20 03:48:31;;;;;;;61.97;57.53;;;5.50;1.00;;;;;;5099720;27;20090;-80
2022/04/20 03:50:56;;;;;;;76.85;71.72;;;6.90;1.00;;;;;;5135291;27;20094;-81
2022/04/20 03:53:22;;;;;;;92.40;86.28;;;5.70;1.00;;;;;;5116501;27;20130;-81
2022/04/20 03:55:48;;;;;;;75.40;70.22;;;5.20;1.00;;;;;;5116557;27;20039;-81
2022/04/20 03:58:14;;;;;;;47.05;43.70;;;7.40;1.00;;;;;;5116691;27;20162;-80
2022/04/20 04:00:40;;;;;;;71.43;66.72;;;;;;;;;;5117007;27;20083;-80
2022/04/20 04:03:05;;;;;;;69.80;65.15;;;5.20;1.00;;;;;;5116934;27;20050;-80
2022/04/20 04:05:32;;;;;;;71.03;66.03;;;;;;;;;;5134777;27;20047;-83
2022/04/20 04:07:58;;;;;;;69.35;64.60;;;5.20;1.00;;;;;;5115713;27;20043;-80
2022/04/20 04:10:23;;;;;;;85.20;79.82;;;7.20;1.00;;;;;;5099671;27;20051;-81
2022/04/20 04:12:49;;;;;;;73.55;68.82;;;5.20;1.00;;;;;;5134355;27;20039;-82
2022/04/20 04:15:15;;;;;;;74.43;69.68;;;5.20;1.00;;;;;;5116438;27;20047;-81
2022/04/20 04:17:40;;;;;;;70.78;66.05;;;6.00;1.00;;;;;;5114980;27;20479;-81
2022/04/20 04:20:07;;;;;;;75.90;71.13;;;6.70;1.00;;;;;;5116607;27;20047;-80
2022/04/20 04:22:35;;;;;;;75.50;70.60;;;5.10;1.00;;;;;;5100142;27;20096;-81
2022/04/20 04:25:01;;;;;;;75.30;70.22;;;5.10;1.00;;;;;;5099507;27;20047;-80
2022/04/20 04:27:27;;;;;;;91.25;85.40;;;5.10;1.00;;;;;;5115700;27;20076;-80
2022/04/20 04:29:52;;;;;;;59.92;55.78;;;6.40;1.00;;;;;;5116884;27;20126;-80
2022/04/20 04:32:18;;;;;;;63.72;59.47;;;6.50;1.00;;;;;;5116397;27;20039;-81
2022/04/20 04:34:44;;;;;;;75.22;70.20;;;5.10;1.00;;;;;;5099599;27;20046;-81
2022/04/20 04:37:13;;;;;;;65.82;61.40;;;4.90;1.00;;;;;;5116580;27;20050;-81
2022/04/20 04:39:39;;;;;;;63.67;59.25;;;5.00;1.00;;;;;;5100345;27;20080;-80
2022/04/20 04:42:04;;;;;;;65.28;61.13;;;5.10;1.00;;;;;;5136644;27;20031;-80
2022/04/20 04:44:32;;;;;;;70.35;65.88;;;;;;;;;;5136762;27;20475;-80
2022/04/20 04:49:42;;;;;;;40.78;37.72;;;5.10;1.00;;;;;;5102063;27;20130;-81
2022/04/20 04:52:11;;;;;;;75.10;70.15;;;4.90;1.00;;;;;;5115491;27;20126;-80
2022/04/20 04:54:41;;;;;;;67.47;62.97;;;6.10;1.00;;;;;;5099905;27;20066;-80
2022/04/20 04:57:07;;;;;;;67.93;63.30;;;6.70;1.00;;;;;;5116272;27;20108;-80
2022/04/20 04:59:37;;;;;;;72.38;67.88;;;6.40;1.00;;;;;;5116330;27;20077;-81
2022/04/20 05:02:04;;;;;;;76.90;71.72;;;5.20;1.00;;;;;;5133222;27;20039;-81
2022/04/20 05:04:30;;;;;;;66.30;61.88;;;5.20;1.00;;;;;;5133773;27;20046;-83
2022/04/20 05:06:56;;;;;;;77.47;72.40;;;5.10;1.00;;;;;;5065040;27;20374;-81
2022/04/20 05:09:22;;;;;;;101.07;94.57;;;7.60;1.00;;;;;;5115782;27;20076;-82
2022/04/20 05:11:51;;;;;;;50.63;47.00;;;7.50;1.00;;;;;;5115378;27;20039;-81
2022/04/20 05:14:17;;;;;;;73.75;67.93;;;7.30;1.00;;;;;;5115874;27;20107;-81
2022/04/20 05:16:43;;;;;;;81.30;75.93;;;5.50;1.00;;;;;;5133254;27;20039;-82
2022/04/20 05:19:09;;;;;;;90.22;84.32;;;6.10;1.00;;;;;;5131201;27;20405;-80
2022/04/20 05:21:38;;;;;;;60.65;56.40;;;5.50;1.00;;;;;;5133077;27;20043;-84
2022/04/20 05:24:05;;;;;;;73.88;68.35;;;5.50;1.00;;;;;;5115370;27;20043;-80
2022/04/20 05:26:31;;;;;;;87.10;81.40;;;5.60;1.00;;;;;;5114888;27;20066;-81
2022/04/20 05:28:56;;;;;;;58.30;54.40;;;6.80;1.00;;;;;;5113652;27;20130;-80
2022/04/20 05:31:22;;;;;;;91.10;85.40;;;7.20;1.00;;;;;;5115021;27;20086;-81
2022/04/20 05:33:49;;;;;;;95.72;89.78;;;5.60;1.00;;;;;;5114380;27;20048;-81
2022/04/20 05:36:15;;;;;;;67.63;62.78;;;8.00;1.00;;;;;;5114983;27;20403;-80
2022/04/20 05:41:40;;;;;;;49.28;45.70;;;5.60;1.00;;;;;;5099762;27;20123;-83
2022/04/20 05:44:10;;;;;;;66.03;61.47;;;6.00;1.00;;;;;;5114491;27;20133;-81
2022/04/20 05:46:36;;;;;;;76.03;70.93;;;7.60;1.00;;;;;;5115011;27;20062;-80
2022/04/20 05:49:02;;;;;;;51.92;48.47;;;5.70;1.00;;;;;;5132935;27;20051;-80
2022/04/20 05:51:28;;;;;;;79.60;74.07;;;8.00;1.00;;;;;;5114039;27;20053;-80
2022/04/20 05:53:54;;;;;;;86.40;80.95;;;8.10;1.00;;;;;;5113513;27;20047;-79
2022/04/20 05:56:20;;;;;;;69.90;65.45;;;7.50;1.00;;;;;;5114580;27;20051;-81
2022/04/20 05:58:47;;;;;;;81.70;76.38;;;8.10;1.00;;;;;;5132770;27;20055;-80
2022/04/20 06:01:14;;;;;;;53.08;49.53;;;6.30;1.00;;;;;;5114112;27;20054;-80
2022/04/20 06:03:40;;;;;;;60.27;56.20;;;8.40;1.00;;;;;;5097251;27;20395;-80
2022/04/20 06:06:06;;;;;;;54.65;51.05;;;6.30;1.00;;;;;;5114448;27;20126;-80
2022/04/20 06:08:32;;;;;;;47.60;44.28;;;6.40;1.00;;;;;;5114671;27;20046;-80
2022/04/20 06:10:58;;;;;;;60.45;56.45;;;6.40;1.00;;;;;;5114084;27;20043;-79
2022/04/20 06:13:28;;;;;;;64.05;59.40;;;8.20;1.00;;;;;;5132803;27;20049;-82
2022/04/20 06:15:55;;;;;;;61.10;57.13;;;6.60;1.00;;;;;;5080522;27;20043;-80
2022/04/20 06:18:21;;;;;;;70.60;65.65;;;6.70;1.00;;;;;;5132285;27;20039;-80
2022/04/20 06:20:47;;;;;;;75.15;70.32;;;6.80;1.00;;;;;;5132751;27;20083;-80
2022/04/20 06:23:13;;;;;;;80.88;75.18;;;8.30;1.00;;;;;;5132464;27;20131;-80
2022/04/20 06:25:39;;;;;;;44.28;41.10;;;8.30;1.00;;;;;;5132722;27;20061;-80
2022/04/20 06:28:06;;;;;;;58.05;54.17;;;6.90;1.00;;;;;;5132234;27;20053;-80
2022/04/20 06:30:32;;;;;;;60.97;56.47;;;6.90;1.00;;;;;;5114329;27;20039;-79
2022/04/20 06:32:57;;;;;;;77.25;72.55;;;7.70;1.00;;;;;;5131242;27;20058;-80
2022/04/20 06:35:24;;;;;;;47.72;44.50;;;9.00;1.00;;;;;;5097159;27;20082;-81
2022/04/20 06:37:50;;;;;;;50.00;46.70;;;9.00;1.00;;;;;;5113674;27;20081;-79
2022/04/20 06:40:16;;;;;;;52.60;49.08;;;7.30;1.00;;;;;;5113212;27;20483;-79
2022/04/20 06:42:42;;;;;;;53.75;50.20;;;5.80;1.00;;;;;;5113850;27;20116;-80
2022/04/20 06:45:08;;;;;;;54.70;50.88;;;9.40;1.00;;;;;;5131763;27;20216;-80
2022/04/20 06:47:34;;;;;;;67.93;63.72;;;7.60;1.00;;;;;;5096610;28;20092;-80
2022/04/20 06:50:00;;;;;;;61.45;56.60;;;7.70;1.00;;;;;;5131544;27;20039;-79
2022/04/20 07:00:39;;;;;;;68.25;63.97;;;9.00;1.00;;;;;;5113923;28;20100;-80
2022/04/20 07:03:08;;;;;;;64.03;59.88;;;8.30;1.00;;;;;;5113226;28;20043;-81
2022/04/20 07:05:35;;;;;;;80.47;75.60;;;8.40;1.00;;;;;;5113578;28;20053;-80
2022/04/20 07:08:01;;;;;;;76.50;71.93;;;10.00;1.00;;;;;;5113339;28;20051;-80
2022/04/20 07:10:28;;;;;;;93.75;87.50;;;8.60;1.00;;;;;;5132022;28;20104;-79
2022/04/20 07:12:54;;;;;;;130.43;122.85;;;9.30;99.90;;;;;;5132057;28;20039;-80
2022/04/20 07:15:20;;;;;;;93.03;86.93;;;9.00;1.00;;;;;;5131883;28;20532;-80
2022/04/20 07:17:46;;;;;;;113.57;106.57;;;8.80;99.90;;;;;;5096176;28;20082;-79
2022/04/20 07:20:17;;;;;;;84.28;78.97;;;9.00;99.90;;;;;;5131907;28;20491;-80
2022/04/20 07:22:50;;;;;;;148.27;139.35;;;9.00;99.90;;;;;;5113655;28;20047;-80
2022/04/20 07:25:17;;;;;;;107.70;101.55;;;10.00;99.90;;;;;;5131847;28;20097;-79
2022/04/20 07:27:45;;;;;;;75.75;70.90;;;9.40;99.90;;;;;;5131853;28;20452;-80
2022/04/20 07:30:11;;;;;;;60.90;56.95;;;11.10;99.90;;;;;;5112900;28;20047;-79
2022/04/20 07:32:37;;;;;;;95.57;89.95;;;12.90;99.90;;;;;;5113206;28;20050;-80
2022/04/20 07:35:03;;;;;;;76.78;72.22;;;14.70;99.90;;;;;;5096417;28;20117;-81
2022/04/20 07:37:32;;;;;;;149.70;140.65;;;16.00;99.90;;;;;;5131791;28;20176;-79
2022/04/20 07:39:58;;;;;;;182.95;173.07;;;17.40;99.90;;;;;;5131923;28;20043;-80
2022/04/20 07:42:24;;;;;;;164.10;155.07;;;18.30;99.90;;;;;;5131540;28;20050;-82
2022/04/20 07:44:50;;;;;;;203.18;192.07;;;19.00;99.90;;;;;;5131720;28;20122;-81
2022/04/20 07:47:16;;;;;;;135.18;127.68;;;20.00;99.90;;;;;;5112553;28;20116;-81
2022/04/20 07:52:26;;;;;;;208.85;197.02;;;21.30;99.90;;;;;;5113438;28;20043;-82
2022/04/20 07:54:52;;;;;;;164.30;155.30;;;21.50;99.90;;;;;;5131674;28;20066;-81
2022/04/20 07:57:17;;;;;;;32.70;30.27;;;20.90;99.90;;;;;;5112700;28;20043;-80
2022/04/20 07:59:44;;;;;;;145.48;137.40;;;21.30;99.90;;;;;;5113446;28;20055;-81
2022/04/20 08:02:09;;;;;;;160.18;151.27;;;22.30;99.90;;;;;;5097358;27;20508;-81
2022/04/20 08:04:35;;;;;;;332.70;313.30;;;22.60;99.90;;;;;;5135512;27;20091;-85
2022/04/20 08:07:02;;;;;;;383.02;359.50;;;21.90;99.90;;;;;;5116563;27;20480;-84
2022/04/20 08:09:27;;;;;;;320.40;302.27;;;21.30;99.90;;;;;;5117259;27;20201;-81
2022/04/20 08:11:53;;;;;;;290.83;274.17;;;22.00;99.90;;;;;;5117091;27;20226;-81
2022/04/20 08:14:20;;;;;;;244.68;231.18;;;22.50;99.90;;;;;;5116189;27;20043;-81
2022/04/20 08:16:47;;;;;;;301.85;284.38;;;22.60;99.90;;;;;;5116576;27;20130;-81
2022/04/20 08:19:13;;;;;;;347.83;327.98;;;22.80;99.90;;;;;;5100242;27;20131;-81
2022/04/20 08:21:39;;;;;;;267.15;252.73;;;23.30;99.90;;;;;;5116799;27;20126;-81
2022/04/20 08:24:05;;;;;;;203.25;192.00;;;23.20;99.90;;;;;;5134755;27;20047;-81
2022/04/20 08:26:33;;;;;;;164.68;155.40;;;23.60;99.90;;;;;;5116568;27;20104;-82
2022/04/20 08:28:59;;;;;;;248.35;233.50;;;22.50;99.90;;;;;;5134734;27;20145;-81
2022/04/20 08:31:25;;;;;;;142.80;135.07;;;23.10;99.90;;;;;;5116030;27;20146;-81
2022/04/20 08:33:51;;;;;;;133.18;125.97;;;23.40;99.90;;;;;;5116188;27;20043;-81
2022/04/20 08:36:17;;;;;;;93.30;87.70;;;23.70;99.90;;;;;;5099082;27;20059;-81
2022/04/20 08:38:44;;;;;;;78.85;74.55;;;23.90;99.90;;;;;;5099202;27;20100;-81
2022/04/20 08:41:12;;;;;;;118.60;112.00;;;23.10;99.90;;;;;;5115844;27;20159;-82
2022/04/20 08:43:41;;;;;;;101.70;96.07;;;23.70;99.90;;;;;;5116110;27;20439;-81
2022/04/20 08:46:09;;;;;;;69.28;65.40;;;24.00;99.90;;;;;;5134124;27;20055;-81
2022/04/20 08:48:35;;;;;;;47.53;44.70;;;24.30;99.90;;;;;;5115763;27;20212;-82
2022/04/20 08:51:05;;;;;;;66.80;62.97;;;23.60;99.90;;;;;;5134588;27;20047;-81
2022/04/20 08:53:30;;;;;;;66.18;62.42;;;22.80;99.90;;;;;;5115526;27;20050;-81
2022/04/20 08:58:49;;;;;;;48.47;45.40;;;24.00;99.90;;;;;;5089172;28;20077;-81
2022/04/20 09:01:17;;;;;;;59.80;55.97;;;24.90;99.90;;;;;;5113371;28;20044;-81
2022/04/20 09:03:46;;;;;;;102.40;96.45;;;25.40;99.90;;;;;;5113123;28;20050;-81
2022/04/20 09:06:12;;;;;;;54.70;51.40;;;26.00;99.90;;;;;;5094785;28;20054;-82
2022/04/20 09:08:38;;;;;;;91.25;86.15;;;26.40;99.90;;;;;;5112963;28;20047;-81
2022/04/20 09:11:04;;;;;;;34.75;32.40;;;26.40;99.90;;;;;;5078290;28;20054;-81
2022/04/20 09:13:38;;;;;;;31.55;29.35;;;26.50;99.90;;;;;;5064712;28;20161;-81
2022/04/20 09:16:09;;;;;;;25.58;23.88;;;26.70;99.90;;;;;;5095081;28;20048;-81
2022/04/20 09:18:35;;;;;;;25.63;23.92;;;26.40;99.90;;;;;;5077667;28;20126;-82
2022/04/20 09:21:12;;;;;;;82.77;77.87;;;26.70;99.90;;;;;;5095145;28;20043;-80
2022/04/20 09:23:39;;;;;;;42.85;40.22;;;27.00;99.90;;;;;;5113493;28;20051;-81
2022/04/20 09:26:15;;;;;;;38.40;36.03;;;27.00;99.90;;;;;;5095028;28;20051;-81
2022/04/20 09:29:01;;;;;;;23.35;21.65;;;27.30;99.90;;;;;;5094783;28;20056;-80
2022/04/20 09:31:48;;;;;;;43.45;40.63;;;27.40;99.90;;;;;;5094413;28;20047;-84
2022/04/20 09:34:34;;;;;;;31.63;29.52;;;27.30;99.90;;;;;;5094785;28;20108;-81
2022/04/20 09:37:13;;;;;;;344.67;323.52;;;26.80;99.90;;;;;;5094527;28;20043;-81
2022/04/20 09:39:47;;;;;;;153.48;145.13;;;26.60;99.90;;;;;;5113029;28;20118;-81
2022/04/20 09:42:13;;;;;;;159.52;150.65;;;25.80;99.90;;;;;;5094231;28;20051;-81
2022/04/20 09:44:52;;;;;;;107.95;101.70;;;24.80;99.90;;;;;;5093247;28;20102;-82
2022/04/20 09:50:06;;;;;;;109.90;103.47;;;25.50;99.90;;;;;;5094252;28;20189;-81
2022/04/20 09:52:39;;;;;;;73.57;69.32;;;26.20;99.90;;;;;;5111711;28;20528;-81
2022/04/20 09:55:06;;;;;;;59.25;55.85;;;26.20;99.90;;;;;;5094454;28;20432;-81
2022/04/20 09:57:34;;;;;;;65.00;61.22;;;25.70;99.90;;;;;;5112153;28;20050;-82
2022/04/20 10:00:03;;;;;;;55.30;51.95;;;25.40;99.90;;;;;;5077075;28;20601;-81
2022/04/20 10:02:30;;;;;;;77.55;73.30;;;24.90;99.90;;;;;;5112031;28;20114;-82
2022/04/20 10:04:57;;;;;;;44.10;41.35;;;25.10;99.90;;;;;;5094383;28;20447;-80
2022/04/20 10:07:23;;;;;;;70.47;66.53;;;26.10;99.90;;;;;;5076913;28;20058;-81
2022/04/20 10:09:49;;;;;;;70.18;66.22;;;26.40;99.90;;;;;;5076941;28;20085;-81
2022/04/20 10:12:17;;;;;;;38.17;35.88;;;26.50;99.90;;;;;;5094016;28;20062;-81
2022/04/20 10:17:34;;;;;;;117.68;110.57;;;27.00;99.90;;;;;;5093535;28;20335;-80
2022/04/20 10:20:02;;;;;;;43.35;40.67;;;27.70;99.90;;;;;;5093856;28;20047;-80
2022/04/20 10:22:31;;;;;;;71.40;67.30;;;28.20;99.90;;;;;;5093231;28;20145;-80
2022/04/20 10:24:58;;;;;;;227.32;213.85;;;28.40;99.90;;;;;;5111825;28;20070;-81
2022/04/20 10:28:08;;;;;;;48.70;45.60;;;28.60;99.90;;;;;;5094255;28;20486;-81
2022/04/20 10:30:38;;;;;;;134.60;126.85;;;28.50;99.90;;;;;;5070540;28;20071;-81
2022/04/20 10:33:13;;;;;;;135.38;126.78;;;29.50;99.90;;;;;;5093662;28;20048;-82
2022/04/20 10:35:55;;;;;;;89.82;84.53;;;29.40;99.90;;;;;;5077148;28;20048;-81
2022/04/20 10:38:21;;;;;;;87.38;82.22;;;29.20;99.90;;;;;;5093722;28;20048;-83
2022/04/20 10:41:02;;;;;;;68.55;64.60;;;29.10;99.90;;;;;;5111851;28;20135;-83
2022/04/20 10:43:29;;;;;;;35.33;32.95;;;29.10;99.90;;;;;;5110457;28;20058;-81
2022/04/20 10:46:17;;;;;;;54.85;51.38;;;29.60;99.90;;;;;;5112176;28;20066;-81
2022/04/20 10:49:00;;;;;;;180.00;169.05;;;29.50;99.90;;;;;;5110616;28;20048;-82
2022/04/20 10:51:30;;;;;;;214.07;202.07;;;29.10;99.90;;;;;;5110034;28;20139;-82
2022/04/20 10:54:18;;;;;;;82.05;77.45;;;29.20;99.90;;;;;;5110727;28;20054;-81
2022/04/20 10:56:48;;;;;;;50.95;47.85;;;28.90;99.90;;;;;;5093566;28;20082;-81
2022/04/20 10:59:14;;;;;;;97.72;92.22;;;29.50;99.90;;;;;;5109927;28;20426;-81
2022/04/20 11:02:02;;;;;;;254.38;239.10;;;29.60;99.90;;;;;;5111235;28;20043;-81
2022/04/20 11:04:48;;;;;;;112.53;105.83;;;30.30;99.90;;;;;;5110192;28;20059;-80
2022/04/20 11:07:23;;;;;;;148.35;139.93;;;30.00;99.90;;;;;;5093660;28;20308;-82
2022/04/20 11:09:56;;;;;;;336.52;316.52;;;30.20;99.90;;;;;;5110476;28;20113;-82
2022/04/20 11:18:38;;;;;;;492.08;461.35;;;30.10;99.90;;;;;;5110226;28;20056;-81
2022/04/20 11:21:04;;;;;;;267.23;252.80;;;30.40;99.90;;;;;;5093566;28;20062;-80
2022/04/20 11:23:54;;;;;;;314.00;296.40;;;30.10;99.90;;;;;;5093353;28;20388;-81
2022/04/20 11:26:39;;;;;;;251.55;238.02;;;29.60;99.90;;;;;;5111507;28;20052;-85
2022/04/20 11:29:12;;;;;;;283.30;268.40;;;29.90;99.90;;;;;;5094337;28;20396;-83
2022/04/20 11:31:42;;;;;;;210.68;199.68;;;29.90;99.90;;;;;;5093647;28;20040;-81
2022/04/20 11:34:08;;;;;;;326.13;307.30;;;29.90;99.90;;;;;;5111145;28;20043;-82
2022/04/20 11:36:41;;;;;;;278.88;262.80;;;29.80;99.90;;;;;;5094493;28;20052;-80
2022/04/20 11:39:08;;;;;;;288.45;272.40;;;29.70;99.90;;;;;;5114461;28;20043;-81
2022/04/20 11:41:34;;;;;;;303.25;286.30;;;29.60;99.90;;;;;;5115212;28;20553;-82
2022/04/20 11:44:02;;;;;;;163.55;154.60;;;29.90;99.90;;;;;;5097688;28;20063;-81
2022/04/20 11:46:28;;;;;;;280.88;264.77;;;29.40;99.90;;;;;;5115013;28;20066;-83
2022/04/20 11:48:58;;;;;;;281.08;265.20;;;29.80;99.90;;;;;;5113854;28;20048;-81
2022/04/20 11:51:27;;;;;;;226.02;213.48;;;30.00;99.90;;;;;;5096692;28;20134;-81
2022/04/20 11:53:53;;;;;;;204.10;192.68;;;29.90;99.90;;;;;;5115287;28;20048;-81
2022/04/20 11:56:39;;;;;;;176.88;166.55;;;29.90;99.90;;;;;;5115291;28;20043;-81
2022/04/20 11:59:09;;;;;;;293.30;276.13;;;29.90;99.90;;;;;;5114592;28;20056;-81
2022/04/20 12:01:38;;;;;;;382.88;360.02;;;29.70;99.90;;;;;;5096025;28;20133;-82
2022/04/20 12:04:25;;;;;;;365.80;344.00;;;29.70;99.90;;;;;;5096874;28;20131;-82
2022/04/20 12:06:59;;;;;;;338.60;318.63;;;29.50;99.90;;;;;;5114944;28;20062;-81
2022/04/20 12:09:35;;;;;;;244.05;230.02;;;29.10;99.90;;;;;;5114491;28;20091;-83
2022/04/20 12:12:02;;;;;;;225.95;212.32;;;28.40;99.90;;;;;;5114596;28;20515;-81
2022/04/20 12:14:34;;;;;;;273.58;257.58;;;27.40;99.90;;;;;;5096330;28;20122;-81
2022/04/20 12:17:05;;;;;;;378.20;356.25;;;26.30;99.90;;;;;;5114470;28;20391;-80
2022/04/20 12:19:32;;;;;;;268.95;253.95;;;25.30;99.90;;;;;;5079151;28;20499;-82
2022/04/20 12:22:07;;;;;;;375.35;353.67;;;23.80;99.90;;;;;;5099371;28;20053;-81
2022/04/20 12:24:34;;;;;;;422.02;394.85;;;23.20;99.90;;;;;;5113197;28;20047;-82
2022/04/20 12:27:00;;;;;;;264.23;249.07;;;22.90;99.90;;;;;;5114464;28;20043;-81
2022/04/20 12:29:29;;;;;;;335.83;313.55;;;22.40;99.90;;;;;;5114247;28;20105;-83
2022/04/20 12:31:55;;;;;;;324.30;306.13;;;21.90;99.90;;;;;;5095537;28;20506;-81
2022/04/20 12:34:24;;;;;;;253.43;238.38;;;21.50;99.90;;;;;;5113463;28;20062;-82
2022/04/20 12:36:51;;;;;;;335.80;316.08;;;21.20;99.90;;;;;;5078758;28;20051;-82
2022/04/20 12:39:27;;;;;;;398.60;375.27;;;20.90;99.90;;;;;;5096313;28;20626;-80
2022/04/20 12:41:58;;;;;;;148.02;138.95;;;20.60;99.90;;;;;;5079389;28;20047;-82
2022/04/20 12:44:35;;;;;;;450.30;423.50;;;20.40;99.90;;;;;;5106027;28;20046;-82
2022/04/20 12:47:10;;;;;;;108.60;102.13;;;20.10;99.90;;;;;;5097031;28;20066;-80
2022/04/20 12:49:37;;;;;;;332.27;311.80;;;20.10;99.90;;;;;;5095496;28;20048;-81
2022/04/20 12:52:10;;;;;;;420.37;393.97;;;19.90;99.90;;;;;;5114012;28;20168;-82
2022/04/20 12:54:36;;;;;;;170.88;160.43;;;19.80;99.90;;;;;;5113475;28;20062;-81
2022/04/20 13:03:02;;;;;;;372.90;349.77;;;19.40;99.90;;;;;;5112336;28;20441;-81
2022/04/20 13:05:29;;;;;;;433.60;407.00;;;19.40;99.90;;;;;;5112146;28;20079;-83
2022/04/20 13:07:55;;;;;;;335.50;314.52;;;18.90;99.90;;;;;;5113672;28;20120;-81
2022/04/20 13:10:24;;;;;;;203.55;190.43;;;19.10;99.90;;;;;;5095452;28;20600;-81
2022/04/20 13:12:54;;;;;;;440.80;413.20;;;18.90;99.90;;;;;;5111956;28;20086;-80
2022/04/20 13:15:21;;;;;;;388.52;364.02;;;18.80;99.90;;;;;;5112207;28;20092;-81
2022/04/20 13:17:47;;;;;;;215.52;202.00;;;18.80;99.90;;;;;;5094663;28;20052;-81